createdAt,value
2019-02-17T00:00:45.809Z,98488.88
2019-02-17T00:03:14.010Z,98486.48
2019-02-17T00:05:42.178Z,98490.01
2019-02-17T00:08:10.368Z,98481.94
2019-02-17T00:10:38.512Z,98485.09
2019-02-17T00:13:06.752Z,98479.55
2019-02-17T00:15:34.884Z,98478.27
2019-02-17T00:18:03.068Z,98471.47
2019-02-17T00:20:31.271Z,98471.69
2019-02-17T00:22:59.470Z,98472.88
2019-02-17T00:25:27.607Z,98476.43
2019-02-17T00:27:55.766Z,98467.06
2019-02-17T00:30:23.949Z,98469.95
2019-02-17T00:32:52.090Z,98471.52
2019-02-17T00:35:20.250Z,98464.50
2019-02-17T00:37:48.407Z,98471.25
2019-02-17T00:40:16.633Z,98474.75
2019-02-17T00:42:44.948Z,98470.17
2019-02-17T00:45:13.105Z,98472.81
2019-02-17T00:47:41.301Z,98477.68
2019-02-17T00:50:09.488Z,98471.52
2019-02-17T00:52:37.672Z,98464.34
2019-02-17T00:55:05.904Z,98460.32
2019-02-17T00:57:34.086Z,98465.34
2019-02-17T01:00:02.228Z,98464.58
2019-02-17T01:02:30.425Z,98454.06
2019-02-17T01:04:58.597Z,98457.80
2019-02-17T01:07:26.739Z,98455.51
2019-02-17T01:09:54.919Z,98460.30
2019-02-17T01:12:23.082Z,98456.80
2019-02-17T01:14:51.308Z,98459.20
2019-02-17T01:17:19.558Z,98463.16
2019-02-17T01:19:47.733Z,98462.41
2019-02-17T01:22:15.924Z,98457.80
2019-02-17T01:24:44.118Z,98457.27
2019-02-17T01:27:12.300Z,98463.13
2019-02-17T01:29:40.441Z,98458.27
2019-02-17T01:32:08.603Z,98462.06
2019-02-17T01:34:36.800Z,98466.05
2019-02-17T01:37:04.943Z,98463.01
2019-02-17T01:39:33.168Z,98462.98
2019-02-17T01:42:01.343Z,98454.99
2019-02-17T01:44:29.515Z,98454.70
2019-02-17T01:46:57.700Z,98459.86
2019-02-17T01:49:25.881Z,98457.44
2019-02-17T01:51:54.135Z,98451.55
2019-02-17T01:54:22.261Z,98457.46
2019-02-17T01:56:50.469Z,98454.59
2019-02-17T01:59:18.665Z,98408.15
2019-02-17T02:01:46.862Z,98450.44
2019-02-17T02:04:15.028Z,98446.26
2019-02-17T02:06:43.258Z,98446.31
2019-02-17T02:09:11.432Z,98445.03
2019-02-17T02:11:39.759Z,98445.02
2019-02-17T02:14:07.994Z,98444.67
2019-02-17T02:16:36.169Z,98448.48
2019-02-17T02:19:04.366Z,98446.14
2019-02-17T02:21:32.536Z,98435.31
2019-02-17T02:24:00.779Z,98434.26
2019-02-17T02:26:28.904Z,98434.74
2019-02-17T02:28:57.084Z,98440.10
2019-02-17T02:31:25.257Z,98441.16
2019-02-17T02:33:53.460Z,98436.60
2019-02-17T02:36:21.645Z,98432.34
2019-02-17T02:38:49.853Z,98441.47
2019-02-17T02:41:17.996Z,98436.38
2019-02-17T02:43:46.171Z,98441.73
2019-02-17T02:48:47.790Z,98444.66
2019-02-17T02:51:16.007Z,98443.09
2019-02-17T02:53:44.194Z,98438.83
2019-02-17T02:56:12.332Z,98436.60
2019-02-17T02:58:40.679Z,98442.48
2019-02-17T03:03:57.580Z,98441.13
2019-02-17T03:06:44.648Z,98437.87
2019-02-17T03:09:12.838Z,98430.08
2019-02-17T03:11:41.000Z,98435.17
2019-02-17T03:14:09.188Z,98435.06
2019-02-17T03:16:37.383Z,98437.58
2019-02-17T03:19:05.564Z,98442.42
2019-02-17T03:21:33.716Z,98439.20
2019-02-17T03:24:01.907Z,98437.56
2019-02-17T03:26:30.110Z,98435.75
2019-02-17T03:28:58.294Z,98434.06
2019-02-17T03:31:45.388Z,98431.16
2019-02-17T03:34:13.547Z,98427.39
2019-02-17T03:36:41.712Z,98423.84
2019-02-17T03:39:09.902Z,98422.18
2019-02-17T03:41:38.069Z,98425.06
2019-02-17T03:44:06.238Z,98428.56
2019-02-17T03:46:34.434Z,98434.75
2019-02-17T03:49:02.641Z,98431.12
2019-02-17T03:51:49.699Z,98433.56
2019-02-17T03:54:17.848Z,98436.33
2019-02-17T03:56:45.994Z,98432.76
2019-02-17T03:59:14.177Z,98439.19
2019-02-17T04:01:42.337Z,98436.80
2019-02-17T04:04:10.552Z,98436.28
2019-02-17T04:06:38.795Z,98436.80
2019-02-17T04:09:07.986Z,98437.50
2019-02-17T04:11:55.073Z,98433.56
2019-02-17T04:14:23.251Z,98432.22
2019-02-17T04:16:51.461Z,98436.72
2019-02-17T04:19:19.644Z,98435.32
2019-02-17T04:21:47.811Z,98444.20
2019-02-17T04:24:16.020Z,98438.59
2019-02-17T04:26:44.156Z,98440.41
2019-02-17T04:29:12.350Z,98442.55
2019-02-17T04:31:40.590Z,98441.53
2019-02-17T04:34:08.734Z,98444.81
2019-02-17T04:36:36.957Z,98444.22
2019-02-17T04:39:05.766Z,98442.39
2019-02-17T04:41:33.927Z,98438.84
2019-02-17T04:44:02.142Z,98433.38
2019-02-17T04:46:30.449Z,98432.11
2019-02-17T04:48:58.598Z,98430.77
2019-02-17T04:51:26.756Z,98431.50
2019-02-17T04:53:54.950Z,98434.97
2019-02-17T04:56:23.132Z,98429.34
2019-02-17T04:58:51.379Z,98430.40
2019-02-17T05:01:19.549Z,98431.16
2019-02-17T05:03:47.775Z,98426.06
2019-02-17T05:06:15.958Z,98424.50
2019-02-17T05:08:44.224Z,98421.27
2019-02-17T05:11:12.378Z,98423.10
2019-02-17T05:13:40.546Z,98417.70
2019-02-17T05:16:08.725Z,98430.28
2019-02-17T05:18:36.900Z,98436.55
2019-02-17T05:21:05.169Z,98436.98
2019-02-17T05:23:33.312Z,98433.03
2019-02-17T05:26:01.498Z,98432.44
2019-02-17T05:28:29.652Z,98427.48
2019-02-17T05:30:57.835Z,98434.78
2019-02-17T05:33:26.020Z,98436.83
2019-02-17T05:35:54.192Z,98432.90
2019-02-17T05:38:22.411Z,98428.99
2019-02-17T05:40:50.563Z,98435.64
2019-02-17T05:43:18.719Z,98433.11
2019-02-17T05:45:46.903Z,98437.61
2019-02-17T05:48:15.118Z,98442.83
2019-02-17T05:53:17.372Z,98448.58
2019-02-17T05:55:45.585Z,98450.22
2019-02-17T05:58:13.759Z,98445.25
2019-02-17T06:00:41.999Z,98443.20
2019-02-17T06:03:10.156Z,98449.05
2019-02-17T06:05:38.331Z,98444.55
2019-02-17T06:08:06.482Z,98445.30
2019-02-17T06:10:34.654Z,98445.81
2019-02-17T06:13:02.848Z,98452.45
2019-02-17T06:15:31.007Z,98451.66
2019-02-17T06:17:59.189Z,98449.93
2019-02-17T06:20:27.438Z,98455.55
2019-02-17T06:22:55.598Z,98458.52
2019-02-17T06:25:23.799Z,98455.31
2019-02-17T06:27:51.999Z,98456.90
2019-02-17T06:30:20.307Z,98456.06
2019-02-17T06:32:48.427Z,98467.75
2019-02-17T06:35:16.606Z,98467.88
2019-02-17T06:37:44.833Z,98464.66
2019-02-17T06:40:12.986Z,98467.05
2019-02-17T06:42:41.193Z,98469.98
2019-02-17T06:45:09.543Z,98469.55
2019-02-17T06:50:24.923Z,98469.69
2019-02-17T06:52:53.093Z,98474.39
2019-02-17T06:55:40.189Z,98480.05
2019-02-17T06:58:08.439Z,98486.08
2019-02-17T07:00:55.445Z,98482.63
2019-02-17T07:03:23.598Z,98486.66
2019-02-17T07:06:10.788Z,98483.89
2019-02-17T07:08:38.946Z,98492.16
2019-02-17T07:11:07.120Z,98482.98
2019-02-17T07:13:35.404Z,98482.84
2019-02-17T07:16:03.681Z,98491.80
2019-02-17T07:18:32.087Z,98492.94
2019-02-17T07:21:00.819Z,98497.25
2019-02-17T07:23:29.035Z,98497.03
2019-02-17T07:25:57.332Z,98503.09
2019-02-17T07:31:12.876Z,98499.20
2019-02-17T07:36:28.426Z,98513.23
2019-02-17T07:38:56.746Z,98495.09
2019-02-17T07:41:25.071Z,98494.50
2019-02-17T07:43:53.221Z,98495.80
2019-02-17T07:46:22.048Z,98498.89
2019-02-17T07:48:50.324Z,98500.72
2019-02-17T07:51:18.516Z,98497.07
2019-02-17T07:53:46.978Z,98500.94
2019-02-17T07:56:17.412Z,98495.02
2019-02-17T07:58:45.825Z,98491.47
2019-02-17T08:01:14.099Z,98495.80
2019-02-17T08:03:42.367Z,98493.03
2019-02-17T08:06:10.575Z,98491.13
2019-02-17T08:08:38.835Z,98484.80
2019-02-17T08:11:07.073Z,98481.17
2019-02-17T08:13:35.413Z,98486.77
2019-02-17T08:16:03.551Z,98478.53
2019-02-17T08:18:31.729Z,98484.97
2019-02-17T08:20:59.961Z,98475.33
2019-02-17T08:23:28.110Z,98484.74
2019-02-17T08:25:56.392Z,98485.26
2019-02-17T08:28:24.675Z,98479.02
2019-02-17T08:30:52.911Z,98477.52
2019-02-17T08:33:21.167Z,98476.48
2019-02-17T08:35:49.410Z,98479.23
2019-02-17T08:38:17.533Z,98481.63
2019-02-17T08:40:45.807Z,98481.05
2019-02-17T08:43:13.954Z,98480.09
2019-02-17T08:45:42.105Z,98485.05
2019-02-17T08:48:10.232Z,98478.03
2019-02-17T08:50:38.381Z,98475.09
2019-02-17T08:53:06.576Z,98469.47
2019-02-17T08:55:34.762Z,98475.04
2019-02-17T08:58:02.928Z,98470.64
2019-02-17T09:00:31.070Z,98471.97
2019-02-17T09:02:59.210Z,98463.59
2019-02-17T09:05:27.359Z,98466.23
2019-02-17T09:07:55.527Z,98467.81
2019-02-17T09:10:23.669Z,98461.09
2019-02-17T09:12:51.825Z,98465.63
2019-02-17T09:15:19.978Z,98461.09
2019-02-17T09:17:48.112Z,98421.05
2019-02-17T09:20:16.274Z,98460.79
2019-02-17T09:22:44.398Z,98459.14
2019-02-17T09:25:12.558Z,98461.42
2019-02-17T09:27:40.772Z,98456.78
2019-02-17T09:30:28.045Z,98454.30
2019-02-17T09:32:56.185Z,98459.75
2019-02-17T09:35:24.335Z,98452.45
2019-02-17T09:37:52.462Z,98458.41
2019-02-17T09:40:20.597Z,98458.70
2019-02-17T09:42:48.766Z,98456.55
2019-02-17T09:45:16.937Z,98453.80
2019-02-17T09:47:45.074Z,98455.20
2019-02-17T09:50:13.247Z,98454.09
2019-02-17T09:52:41.389Z,98457.83
2019-02-17T09:55:09.583Z,98453.49
2019-02-17T10:00:45.379Z,98450.80
2019-02-17T10:03:13.529Z,98449.99
2019-02-17T10:05:41.659Z,98449.16
2019-02-17T10:08:09.837Z,98451.61
2019-02-17T10:10:38.002Z,98442.93
2019-02-17T10:13:06.157Z,98444.58
2019-02-17T10:15:34.311Z,98446.40
2019-02-17T10:18:21.598Z,98445.86
2019-02-17T10:20:49.768Z,98450.41
2019-02-17T10:23:17.913Z,98446.61
2019-02-17T10:25:46.040Z,98443.08
2019-02-17T10:28:14.180Z,98445.20
2019-02-17T10:30:42.345Z,98442.03
2019-02-17T10:33:10.509Z,98437.69
2019-02-17T10:35:40.433Z,98430.66
2019-02-17T10:38:08.475Z,98387.79
2019-02-17T10:40:36.627Z,98430.36
2019-02-17T10:43:04.792Z,98430.53
2019-02-17T10:45:32.955Z,98429.69
2019-02-17T10:48:01.085Z,98424.61
2019-02-17T10:50:29.237Z,98425.00
2019-02-17T10:52:57.396Z,98418.23
2019-02-17T10:55:25.550Z,98413.02
2019-02-17T10:57:53.705Z,98407.70
2019-02-17T11:00:21.878Z,98408.20
2019-02-17T11:02:50.043Z,98401.41
2019-02-17T11:05:18.211Z,98400.90
2019-02-17T11:07:46.394Z,98395.48
2019-02-17T11:10:14.529Z,98383.59
2019-02-17T11:12:42.692Z,98384.33
2019-02-17T11:15:11.999Z,98375.20
2019-02-17T11:17:40.121Z,98375.44
2019-02-17T11:20:08.445Z,98369.14
2019-02-17T11:22:36.617Z,98364.20
2019-02-17T11:25:04.744Z,98360.19
2019-02-17T11:27:32.927Z,98360.45
2019-02-17T11:30:01.051Z,98355.67
2019-02-17T11:32:29.205Z,98348.06
2019-02-17T11:34:57.356Z,98345.67
2019-02-17T11:37:25.531Z,98342.20
2019-02-17T11:39:53.740Z,98332.03
2019-02-17T11:42:21.930Z,98333.08
2019-02-17T11:44:50.168Z,98325.03
2019-02-17T11:47:18.571Z,98328.73
2019-02-17T11:50:05.887Z,98321.87
2019-02-17T11:52:34.072Z,98322.10
2019-02-17T11:55:02.415Z,98320.69
2019-02-17T11:57:30.643Z,98316.95
2019-02-17T11:59:58.815Z,98315.37
2019-02-17T12:02:27.098Z,98309.87
2019-02-17T12:04:55.277Z,98302.84
2019-02-17T12:07:42.672Z,98307.12
2019-02-17T12:10:11.000Z,98302.70
2019-02-17T12:12:39.225Z,98292.61
2019-02-17T12:15:08.045Z,98299.71
2019-02-17T12:17:36.207Z,98287.70
2019-02-17T12:20:23.526Z,98282.44
2019-02-17T12:22:57.475Z,98283.85
2019-02-17T12:25:44.589Z,98279.74
2019-02-17T12:28:18.079Z,98271.59
2019-02-17T12:33:36.034Z,98264.93
2019-02-17T12:36:04.194Z,98262.84
2019-02-17T12:38:32.359Z,98258.00
2019-02-17T12:41:00.639Z,98261.13
2019-02-17T12:43:28.851Z,98257.82
2019-02-17T12:45:57.094Z,98252.57
2019-02-17T12:48:25.309Z,98250.72
2019-02-17T12:51:12.346Z,98246.61
2019-02-17T12:53:40.486Z,98245.27
2019-02-17T12:56:08.661Z,98246.31
2019-02-17T12:58:36.801Z,98243.50
2019-02-17T13:01:05.031Z,98238.05
2019-02-17T13:03:33.193Z,98240.20
2019-02-17T13:06:01.341Z,98234.88
2019-02-17T13:08:29.518Z,98230.77
2019-02-17T13:10:57.659Z,98225.15
2019-02-17T13:13:25.814Z,98216.56
2019-02-17T13:15:53.985Z,98219.19
2019-02-17T13:18:22.134Z,98214.98
2019-02-17T13:20:50.285Z,98218.03
2019-02-17T13:23:18.416Z,98214.41
2019-02-17T13:25:46.697Z,98210.37
2019-02-17T13:28:14.835Z,98200.29
2019-02-17T13:30:42.969Z,98205.25
2019-02-17T13:33:11.188Z,98201.20
2019-02-17T13:35:39.337Z,98198.63
2019-02-17T13:38:07.484Z,98194.02
2019-02-17T13:40:35.634Z,98194.71
2019-02-17T13:43:03.772Z,98189.13
2019-02-17T13:45:51.022Z,98192.98
2019-02-17T13:48:19.214Z,98188.09
2019-02-17T13:50:47.370Z,98177.55
2019-02-17T13:53:15.521Z,98187.59
2019-02-17T13:55:43.656Z,98188.59
2019-02-17T13:58:11.818Z,98183.20
2019-02-17T14:00:59.047Z,98183.67
2019-02-17T14:03:27.223Z,98180.73
2019-02-17T14:05:55.361Z,98175.89
2019-02-17T14:08:23.532Z,98171.62
2019-02-17T14:10:51.669Z,98169.39
2019-02-17T14:13:19.814Z,98163.16
2019-02-17T14:15:47.960Z,98169.58
2019-02-17T14:18:16.131Z,98166.66
2019-02-17T14:20:44.351Z,98163.77
2019-02-17T14:23:12.538Z,98166.00
2019-02-17T14:25:40.680Z,98164.15
2019-02-17T14:28:08.822Z,98161.69
2019-02-17T14:30:36.965Z,98156.61
2019-02-17T14:33:05.163Z,98158.15
2019-02-17T14:35:33.333Z,98157.27
2019-02-17T14:38:01.487Z,98152.03
2019-02-17T14:40:29.639Z,98152.57
2019-02-17T14:42:57.760Z,98149.03
2019-02-17T14:45:25.903Z,98153.06
2019-02-17T14:47:54.060Z,98150.38
2019-02-17T14:50:22.206Z,98149.09
2019-02-17T14:52:50.362Z,98147.75
2019-02-17T14:55:18.546Z,98141.75
2019-02-17T14:57:47.024Z,98139.67
2019-02-17T15:02:52.177Z,98134.48
2019-02-17T15:05:20.317Z,98127.67
2019-02-17T15:07:48.548Z,98132.13
2019-02-17T15:10:16.701Z,98126.09
2019-02-17T15:12:44.933Z,98130.44
2019-02-17T15:15:13.102Z,98123.12
2019-02-17T15:17:41.321Z,98121.24
2019-02-17T15:20:10.582Z,98115.86
2019-02-17T15:22:38.813Z,98118.73
2019-02-17T15:25:07.670Z,98116.16
2019-02-17T15:27:35.930Z,98118.55
2019-02-17T15:30:04.893Z,98112.05
2019-02-17T15:32:33.109Z,98107.96
2019-02-17T15:37:48.462Z,98102.92
2019-02-17T15:40:16.676Z,98104.34
2019-02-17T15:42:44.787Z,98103.31
2019-02-17T15:45:13.005Z,98101.66
2019-02-17T15:47:41.222Z,98102.39
2019-02-17T15:50:09.471Z,98097.54
2019-02-17T15:52:37.667Z,98094.69
2019-02-17T15:55:06.193Z,98096.66
2019-02-17T15:57:34.475Z,98095.66
2019-02-17T16:00:02.633Z,98092.34
2019-02-17T16:02:30.797Z,98089.84
2019-02-17T16:04:58.966Z,98094.69
2019-02-17T16:07:27.263Z,98094.73
2019-02-17T16:10:14.581Z,98084.58
2019-02-17T16:12:42.823Z,98090.46
2019-02-17T16:17:59.257Z,98083.23
2019-02-17T16:23:39.738Z,98085.77
2019-02-17T16:26:07.975Z,98084.66
2019-02-17T16:28:36.249Z,98082.19
2019-02-17T16:31:04.482Z,98083.92
2019-02-17T16:33:32.663Z,98085.50
2019-02-17T16:36:19.868Z,98083.38
2019-02-17T16:38:48.096Z,98087.42
2019-02-17T16:41:16.324Z,98089.62
2019-02-17T16:43:44.554Z,98085.50
2019-02-17T16:46:12.775Z,98091.03
2019-02-17T16:48:41.005Z,98088.50
2019-02-17T16:51:09.209Z,98088.11
2019-02-17T16:56:11.705Z,98089.69
2019-02-17T16:58:39.949Z,98091.27
2019-02-17T17:01:08.235Z,98095.16
2019-02-17T17:06:09.802Z,98098.08
2019-02-17T17:08:37.990Z,98098.23
2019-02-17T17:11:06.155Z,98101.23
2019-02-17T17:13:34.304Z,98104.81
2019-02-17T17:16:02.460Z,98105.84
2019-02-17T17:18:30.591Z,98108.31
2019-02-17T17:20:58.752Z,98110.20
2019-02-17T17:26:00.187Z,98109.16
2019-02-17T17:28:28.328Z,98110.50
2019-02-17T17:31:02.569Z,98113.55
2019-02-17T17:33:30.739Z,98110.81
2019-02-17T17:35:58.867Z,98114.12
2019-02-17T17:38:26.995Z,98111.66
2019-02-17T17:40:55.164Z,98117.85
2019-02-17T17:43:23.292Z,98125.73
2019-02-17T17:45:51.454Z,98121.39
2019-02-17T17:48:38.668Z,98119.31
2019-02-17T17:51:06.820Z,98122.43
2019-02-17T17:56:22.098Z,98049.45
2019-02-17T17:58:50.358Z,98118.96
2019-02-17T18:01:18.541Z,98123.84
2019-02-17T18:03:46.687Z,98126.97
2019-02-17T18:06:14.861Z,98125.92
2019-02-17T18:08:43.028Z,98128.69
2019-02-17T18:11:11.147Z,98128.08
2019-02-17T18:13:39.294Z,98127.58
2019-02-17T18:16:07.419Z,98129.23
2019-02-17T18:18:35.595Z,98131.38
2019-02-17T18:21:22.649Z,98129.77
2019-02-17T18:23:50.781Z,98140.85
2019-02-17T18:26:37.942Z,98141.42
2019-02-17T18:29:24.990Z,98140.81
2019-02-17T18:31:53.265Z,98142.16
2019-02-17T18:34:21.684Z,98140.55
2019-02-17T18:36:50.193Z,98141.84
2019-02-17T18:39:18.513Z,98140.23
2019-02-17T18:41:46.737Z,98143.38
2019-02-17T18:44:33.891Z,98141.42
2019-02-17T18:47:02.375Z,98135.77
2019-02-17T18:49:30.778Z,98135.97
2019-02-17T18:52:17.938Z,98129.04
2019-02-17T18:54:46.133Z,98134.19
2019-02-17T18:57:14.537Z,98136.49
2019-02-17T19:00:02.014Z,98132.08
2019-02-17T19:02:30.315Z,98124.23
2019-02-17T19:04:58.533Z,98128.89
2019-02-17T19:07:26.937Z,98126.19
2019-02-17T19:10:14.009Z,98135.62
2019-02-17T19:12:42.329Z,98130.23
2019-02-17T19:15:11.439Z,98139.19
2019-02-17T19:17:39.558Z,98134.77
2019-02-17T19:20:08.643Z,98128.34
2019-02-17T19:22:55.869Z,98122.53
2019-02-17T19:25:24.073Z,98123.57
2019-02-17T19:27:52.241Z,98123.50
2019-02-17T19:30:20.457Z,98122.46
2019-02-17T19:32:48.683Z,98126.45
2019-02-17T19:35:16.860Z,98122.89
2019-02-17T19:37:45.134Z,98121.62
2019-02-17T19:40:13.518Z,98132.45
2019-02-17T19:42:41.735Z,98127.68
2019-02-17T19:45:10.452Z,98134.41
2019-02-17T19:47:38.700Z,98135.49
2019-02-17T19:50:07.369Z,98173.25
2019-02-17T19:52:35.593Z,98140.95
2019-02-17T19:55:03.850Z,98138.25
2019-02-17T19:57:52.656Z,98139.09
2019-02-17T20:00:39.961Z,98141.79
2019-02-17T20:03:23.928Z,98137.83
2019-02-17T20:06:11.109Z,98137.83
2019-02-17T20:08:39.337Z,98137.52
2019-02-17T20:11:07.595Z,98145.36
2019-02-17T20:13:54.898Z,98141.55
2019-02-17T20:16:23.258Z,98137.35
2019-02-17T20:18:51.947Z,98144.81
2019-02-17T20:21:20.722Z,98140.82
2019-02-17T20:23:49.294Z,98141.02
2019-02-17T20:26:17.464Z,98144.86
2019-02-17T20:28:48.174Z,98140.52
2019-02-17T20:31:16.912Z,98141.86
2019-02-17T20:33:45.266Z,98146.16
2019-02-17T20:36:13.683Z,98138.86
2019-02-17T20:38:42.419Z,98142.90
2019-02-17T20:41:10.745Z,98147.24
2019-02-17T20:43:39.095Z,98146.16
2019-02-17T20:46:07.586Z,98148.59
2019-02-17T20:48:35.974Z,98147.51
2019-02-17T20:53:52.970Z,98147.31
2019-02-17T20:56:21.323Z,98147.55
2019-02-17T20:58:49.729Z,98141.63
2019-02-17T21:01:18.069Z,98148.42
2019-02-17T21:03:46.243Z,98142.77
2019-02-17T21:06:14.662Z,98144.25
2019-02-17T21:08:42.965Z,98149.27
2019-02-17T21:11:11.334Z,98139.34
2019-02-17T21:13:39.668Z,98138.70
2019-02-17T21:16:26.985Z,98133.62
2019-02-17T21:18:55.752Z,98136.42
2019-02-17T21:21:25.147Z,98132.14
2019-02-17T21:23:53.449Z,98130.80
2019-02-17T21:26:26.290Z,98130.25
2019-02-17T21:28:51.805Z,98123.45
2019-02-17T21:31:20.541Z,98127.30
2019-02-17T21:33:48.836Z,98129.45
2019-02-17T21:36:23.186Z,98131.58
2019-02-17T21:38:47.136Z,98130.86
2019-02-17T21:41:34.268Z,98133.78
2019-02-17T21:44:02.654Z,98131.09
2019-02-17T21:46:31.013Z,98132.58
2019-02-17T21:48:59.397Z,98135.27
2019-02-17T21:54:01.470Z,98142.00
2019-02-17T21:56:29.645Z,98134.53
2019-02-17T21:59:16.875Z,98143.38
2019-02-17T22:01:45.158Z,98132.69
2019-02-17T22:04:13.363Z,98131.03
2019-02-17T22:06:41.540Z,98127.30
2019-02-17T22:09:09.803Z,98126.45
2019-02-17T22:11:38.027Z,98121.18
2019-02-17T22:14:06.164Z,98126.19
2019-02-17T22:16:34.354Z,98116.97
2019-02-17T22:19:02.553Z,98118.12
2019-02-17T22:21:30.826Z,98116.90
2019-02-17T22:23:58.976Z,98114.08
2019-02-17T22:26:27.173Z,98115.92
2019-02-17T22:28:55.344Z,98116.84
2019-02-17T22:31:23.487Z,98119.03
2019-02-17T22:33:51.769Z,98117.81
2019-02-17T22:36:20.027Z,98115.00
2019-02-17T22:38:48.205Z,98114.69
2019-02-17T22:41:16.363Z,98114.15
2019-02-17T22:43:44.561Z,98113.00
2019-02-17T22:46:12.759Z,98112.00
2019-02-17T22:48:41.081Z,98121.48
2019-02-17T22:51:09.273Z,98118.86
2019-02-17T22:53:43.710Z,98114.33
2019-02-17T22:56:07.265Z,98113.84
2019-02-17T22:58:35.471Z,98109.50
2019-02-17T23:01:05.697Z,98112.88
2019-02-17T23:03:33.866Z,98113.05
2019-02-17T23:06:02.048Z,98111.94
2019-02-17T23:08:30.231Z,98113.22
2019-02-17T23:10:58.395Z,98117.32
2019-02-17T23:13:26.573Z,98115.98
2019-02-17T23:15:54.742Z,98119.34
2019-02-17T23:18:22.922Z,98126.20
2019-02-17T23:20:51.069Z,98113.95
2019-02-17T23:23:19.210Z,98124.89
2019-02-17T23:25:47.399Z,98114.26
2019-02-17T23:28:15.540Z,98115.37
2019-02-17T23:30:43.715Z,98119.51
2019-02-17T23:33:11.860Z,98125.89
2019-02-17T23:35:40.058Z,98123.51
2019-02-17T23:38:08.168Z,98125.02
2019-02-17T23:40:36.352Z,98125.63
2019-02-17T23:43:04.511Z,98119.17
2019-02-17T23:45:32.706Z,98121.05
2019-02-17T23:48:00.898Z,98123.55
2019-02-17T23:50:29.050Z,98123.38
2019-02-17T23:52:57.199Z,98122.57
2019-02-17T23:55:25.375Z,98122.77
2019-02-17T23:57:53.580Z,98119.47
